sensor_id;sensor_type;location;lat;lon;timestamp;P1;durP1;ratioP1;P2;durP2;ratioP2
60060;SDS011;45933;51.336;12.612;2022-07-23T00:01:16;4.07;;;3.67;;
60060;SDS011;45933;51.336;12.612;2022-07-23T00:03:41;5.00;;;4.18;;
60060;SDS011;45933;51.336;12.612;2022-07-23T00:06:06;4.88;;;3.90;;
60060;SDS011;45933;51.336;12.612;2022-07-23T00:08:32;4.03;;;3.63;;
60060;SDS011;45933;51.336;12.612;2022-07-23T00:10:57;4.03;;;3.63;;
60060;SDS011;45933;51.336;12.612;2022-07-23T00:13:23;4.45;;;4.03;;
60060;SDS011;45933;51.336;12.612;2022-07-23T00:15:48;4.68;;;3.88;;
60060;SDS011;45933;51.336;12.612;2022-07-23T00:18:13;4.05;;;3.60;;
60060;SDS011;45933;51.336;12.612;2022-07-23T00:20:39;5.78;;;3.90;;
60060;SDS011;45933;51.336;12.612;2022-07-23T00:23:04;4.68;;;3.95;;
60060;SDS011;45933;51.336;12.612;2022-07-23T00:25:30;6.35;;;4.68;;
60060;SDS011;45933;51.336;12.612;2022-07-23T00:27:55;4.63;;;4.18;;
60060;SDS011;45933;51.336;12.612;2022-07-23T00:30:21;5.90;;;3.83;;
60060;SDS011;45933;51.336;12.612;2022-07-23T00:32:47;9.13;;;3.75;;
60060;SDS011;45933;51.336;12.612;2022-07-23T00:35:13;4.82;;;4.32;;
60060;SDS011;45933;51.336;12.612;2022-07-23T00:37:39;4.90;;;3.90;;
60060;SDS011;45933;51.336;12.612;2022-07-23T00:40:05;4.20;;;3.83;;
60060;SDS011;45933;51.336;12.612;2022-07-23T00:42:31;4.80;;;4.00;;
60060;SDS011;45933;51.336;12.612;2022-07-23T00:44:57;4.60;;;4.18;;
60060;SDS011;45933;51.336;12.612;2022-07-23T00:47:23;5.25;;;4.40;;
60060;SDS011;45933;51.336;12.612;2022-07-23T00:49:48;4.88;;;4.20;;
60060;SDS011;45933;51.336;12.612;2022-07-23T00:52:13;5.20;;;4.70;;
60060;SDS011;45933;51.336;12.612;2022-07-23T00:54:39;4.80;;;4.40;;
60060;SDS011;45933;51.336;12.612;2022-07-23T00:57:04;5.28;;;4.35;;
60060;SDS011;45933;51.336;12.612;2022-07-23T00:59:30;6.93;;;4.20;;
60060;SDS011;45933;51.336;12.612;2022-07-23T01:01:55;6.03;;;3.97;;
60060;SDS011;45933;51.336;12.612;2022-07-23T01:04:21;4.60;;;4.18;;
60060;SDS011;45933;51.336;12.612;2022-07-23T01:06:47;4.95;;;4.47;;
60060;SDS011;45933;51.336;12.612;2022-07-23T01:09:12;5.80;;;4.32;;
60060;SDS011;45933;51.336;12.612;2022-07-23T01:11:38;4.40;;;4.00;;
60060;SDS011;45933;51.336;12.612;2022-07-23T01:14:08;4.72;;;4.32;;
60060;SDS011;45933;51.336;12.612;2022-07-23T01:16:34;4.47;;;4.05;;
60060;SDS011;45933;51.336;12.612;2022-07-23T01:19:00;7.65;;;4.70;;
60060;SDS011;45933;51.336;12.612;2022-07-23T01:21:25;4.68;;;4.10;;
60060;SDS011;45933;51.336;12.612;2022-07-23T01:23:50;6.93;;;4.40;;
60060;SDS011;45933;51.336;12.612;2022-07-23T01:26:16;5.13;;;4.43;;
60060;SDS011;45933;51.336;12.612;2022-07-23T01:28:42;4.90;;;4.05;;
60060;SDS011;45933;51.336;12.612;2022-07-23T01:31:07;4.82;;;4.32;;
60060;SDS011;45933;51.336;12.612;2022-07-23T01:33:33;6.45;;;4.55;;
60060;SDS011;45933;51.336;12.612;2022-07-23T01:35:58;7.50;;;4.60;;
60060;SDS011;45933;51.336;12.612;2022-07-23T01:38:24;4.80;;;4.32;;
60060;SDS011;45933;51.336;12.612;2022-07-23T01:40:49;4.82;;;4.20;;
60060;SDS011;45933;51.336;12.612;2022-07-23T01:43:14;6.28;;;4.63;;
60060;SDS011;45933;51.336;12.612;2022-07-23T01:45:40;4.38;;;3.92;;
60060;SDS011;45933;51.336;12.612;2022-07-23T01:48:06;5.60;;;5.05;;
60060;SDS011;45933;51.336;12.612;2022-07-23T01:50:32;5.20;;;4.70;;
60060;SDS011;45933;51.336;12.612;2022-07-23T01:52:57;6.45;;;4.65;;
60060;SDS011;45933;51.336;12.612;2022-07-23T01:55:22;5.75;;;4.47;;
60060;SDS011;45933;51.336;12.612;2022-07-23T01:57:48;5.78;;;4.97;;
60060;SDS011;45933;51.336;12.612;2022-07-23T02:00:13;5.53;;;4.45;;
60060;SDS011;45933;51.336;12.612;2022-07-23T02:02:39;5.47;;;4.15;;
60060;SDS011;45933;51.336;12.612;2022-07-23T02:05:04;5.20;;;4.60;;
60060;SDS011;45933;51.336;12.612;2022-07-23T02:07:30;6.45;;;4.53;;
60060;SDS011;45933;51.336;12.612;2022-07-23T02:09:55;4.80;;;4.32;;
60060;SDS011;45933;51.336;12.612;2022-07-23T02:12:21;5.95;;;4.47;;
60060;SDS011;45933;51.336;12.612;2022-07-23T02:14:46;7.47;;;4.60;;
60060;SDS011;45933;51.336;12.612;2022-07-23T02:17:11;4.60;;;4.20;;
60060;SDS011;45933;51.336;12.612;2022-07-23T02:19:37;5.35;;;4.40;;
60060;SDS011;45933;51.336;12.612;2022-07-23T02:22:02;5.63;;;4.57;;
60060;SDS011;45933;51.336;12.612;2022-07-23T02:24:27;5.93;;;4.70;;
60060;SDS011;45933;51.336;12.612;2022-07-23T02:26:53;8.00;;;4.93;;
60060;SDS011;45933;51.336;12.612;2022-07-23T02:29:18;6.30;;;5.50;;
60060;SDS011;45933;51.336;12.612;2022-07-23T02:31:43;11.50;;;4.78;;
60060;SDS011;45933;51.336;12.612;2022-07-23T02:34:09;5.40;;;4.90;;
60060;SDS011;45933;51.336;12.612;2022-07-23T02:36:36;5.53;;;4.35;;
60060;SDS011;45933;51.336;12.612;2022-07-23T02:39:02;6.30;;;4.97;;
60060;SDS011;45933;51.336;12.612;2022-07-23T02:41:28;5.70;;;5.10;;
60060;SDS011;45933;51.336;12.612;2022-07-23T02:43:53;6.10;;;4.97;;
60060;SDS011;45933;51.336;12.612;2022-07-23T02:46:18;5.55;;;4.93;;
60060;SDS011;45933;51.336;12.612;2022-07-23T02:48:44;5.80;;;5.25;;
60060;SDS011;45933;51.336;12.612;2022-07-23T02:51:09;5.35;;;4.85;;
60060;SDS011;45933;51.336;12.612;2022-07-23T02:53:34;5.85;;;5.10;;
60060;SDS011;45933;51.336;12.612;2022-07-23T02:56:00;5.32;;;4.65;;
60060;SDS011;45933;51.336;12.612;2022-07-23T02:58:25;5.90;;;5.32;;
60060;SDS011;45933;51.336;12.612;2022-07-23T03:00:51;7.18;;;5.00;;
60060;SDS011;45933;51.336;12.612;2022-07-23T03:03:17;6.55;;;5.68;;
60060;SDS011;45933;51.336;12.612;2022-07-23T03:05:43;6.25;;;5.18;;
60060;SDS011;45933;51.336;12.612;2022-07-23T03:08:08;6.30;;;5.70;;
60060;SDS011;45933;51.336;12.612;2022-07-23T03:10:33;6.43;;;5.82;;
60060;SDS011;45933;51.336;12.612;2022-07-23T03:12:59;13.25;;;6.75;;
60060;SDS011;45933;51.336;12.612;2022-07-23T03:15:24;6.10;;;5.60;;
60060;SDS011;45933;51.336;12.612;2022-07-23T03:17:50;7.60;;;6.03;;
60060;SDS011;45933;51.336;12.612;2022-07-23T03:20:15;6.80;;;6.05;;
60060;SDS011;45933;51.336;12.612;2022-07-23T03:22:40;8.63;;;6.65;;
60060;SDS011;45933;51.336;12.612;2022-07-23T03:25:06;6.70;;;6.10;;
60060;SDS011;45933;51.336;12.612;2022-07-23T03:27:32;7.13;;;6.43;;
60060;SDS011;45933;51.336;12.612;2022-07-23T03:29:58;7.05;;;6.35;;
60060;SDS011;45933;51.336;12.612;2022-07-23T03:32:24;7.30;;;5.85;;
60060;SDS011;45933;51.336;12.612;2022-07-23T03:34:50;6.82;;;6.13;;
60060;SDS011;45933;51.336;12.612;2022-07-23T03:37:16;6.45;;;5.85;;
60060;SDS011;45933;51.336;12.612;2022-07-23T03:39:42;6.97;;;6.28;;
60060;SDS011;45933;51.336;12.612;2022-07-23T03:42:08;7.10;;;6.20;;
60060;SDS011;45933;51.336;12.612;2022-07-23T03:44:34;7.53;;;5.95;;
60060;SDS011;45933;51.336;12.612;2022-07-23T03:47:02;6.45;;;5.85;;
60060;SDS011;45933;51.336;12.612;2022-07-23T03:49:28;7.32;;;6.18;;
60060;SDS011;45933;51.336;12.612;2022-07-23T03:51:53;6.90;;;5.45;;
60060;SDS011;45933;51.336;12.612;2022-07-23T03:54:19;6.15;;;5.50;;
60060;SDS011;45933;51.336;12.612;2022-07-23T03:56:44;5.72;;;5.00;;
60060;SDS011;45933;51.336;12.612;2022-07-23T03:59:09;11.05;;;5.82;;
60060;SDS011;45933;51.336;12.612;2022-07-23T04:01:35;6.40;;;5.80;;
60060;SDS011;45933;51.336;12.612;2022-07-23T04:04:01;6.93;;;5.22;;
60060;SDS011;45933;51.336;12.612;2022-07-23T04:06:27;5.95;;;5.35;;
60060;SDS011;45933;51.336;12.612;2022-07-23T04:08:52;7.35;;;5.40;;
60060;SDS011;45933;51.336;12.612;2022-07-23T04:11:18;7.15;;;5.00;;
60060;SDS011;45933;51.336;12.612;2022-07-23T04:13:43;6.38;;;5.30;;
60060;SDS011;45933;51.336;12.612;2022-07-23T04:16:08;8.88;;;5.47;;
60060;SDS011;45933;51.336;12.612;2022-07-23T04:18:34;7.40;;;5.78;;
60060;SDS011;45933;51.336;12.612;2022-07-23T04:20:59;5.72;;;5.05;;
60060;SDS011;45933;51.336;12.612;2022-07-23T04:23:25;7.40;;;5.60;;
60060;SDS011;45933;51.336;12.612;2022-07-23T04:25:50;7.43;;;5.63;;
60060;SDS011;45933;51.336;12.612;2022-07-23T04:28:15;6.57;;;5.80;;
60060;SDS011;45933;51.336;12.612;2022-07-23T04:30:41;6.72;;;5.68;;
60060;SDS011;45933;51.336;12.612;2022-07-23T04:33:06;9.20;;;6.03;;
60060;SDS011;45933;51.336;12.612;2022-07-23T04:35:35;6.57;;;5.88;;
60060;SDS011;45933;51.336;12.612;2022-07-23T04:38:01;9.70;;;7.35;;
60060;SDS011;45933;51.336;12.612;2022-07-23T04:40:28;9.90;;;8.18;;
60060;SDS011;45933;51.336;12.612;2022-07-23T04:42:53;13.68;;;7.82;;
60060;SDS011;45933;51.336;12.612;2022-07-23T04:45:19;11.32;;;8.27;;
60060;SDS011;45933;51.336;12.612;2022-07-23T04:47:44;8.43;;;7.60;;
60060;SDS011;45933;51.336;12.612;2022-07-23T04:50:10;7.32;;;6.45;;
60060;SDS011;45933;51.336;12.612;2022-07-23T04:52:35;10.48;;;6.75;;
60060;SDS011;45933;51.336;12.612;2022-07-23T04:55:01;6.95;;;6.00;;
60060;SDS011;45933;51.336;12.612;2022-07-23T04:57:27;9.80;;;7.05;;
60060;SDS011;45933;51.336;12.612;2022-07-23T04:59:52;6.95;;;6.18;;
60060;SDS011;45933;51.336;12.612;2022-07-23T05:02:17;7.93;;;6.05;;
60060;SDS011;45933;51.336;12.612;2022-07-23T05:04:43;7.68;;;6.57;;
60060;SDS011;45933;51.336;12.612;2022-07-23T05:07:08;11.38;;;6.97;;
60060;SDS011;45933;51.336;12.612;2022-07-23T05:09:34;9.05;;;6.72;;
60060;SDS011;45933;51.336;12.612;2022-07-23T05:11:59;10.32;;;7.22;;
60060;SDS011;45933;51.336;12.612;2022-07-23T05:14:25;8.57;;;7.10;;
60060;SDS011;45933;51.336;12.612;2022-07-23T05:16:51;11.23;;;7.20;;
60060;SDS011;45933;51.336;12.612;2022-07-23T05:19:16;7.70;;;6.65;;
60060;SDS011;45933;51.336;12.612;2022-07-23T05:21:41;7.50;;;6.68;;
60060;SDS011;45933;51.336;12.612;2022-07-23T05:24:07;9.55;;;6.97;;
60060;SDS011;45933;51.336;12.612;2022-07-23T05:26:32;10.18;;;6.90;;
60060;SDS011;45933;51.336;12.612;2022-07-23T05:28:58;13.43;;;7.78;;
60060;SDS011;45933;51.336;12.612;2022-07-23T05:31:23;13.23;;;7.60;;
60060;SDS011;45933;51.336;12.612;2022-07-23T05:33:49;8.57;;;7.22;;
60060;SDS011;45933;51.336;12.612;2022-07-23T05:36:14;10.95;;;6.75;;
60060;SDS011;45933;51.336;12.612;2022-07-23T05:38:40;8.57;;;7.07;;
60060;SDS011;45933;51.336;12.612;2022-07-23T05:41:05;9.45;;;7.20;;
60060;SDS011;45933;51.336;12.612;2022-07-23T05:43:31;9.75;;;7.70;;
60060;SDS011;45933;51.336;12.612;2022-07-23T05:45:56;10.98;;;7.50;;
60060;SDS011;45933;51.336;12.612;2022-07-23T05:48:21;10.23;;;7.55;;
60060;SDS011;45933;51.336;12.612;2022-07-23T05:50:47;8.63;;;6.93;;
60060;SDS011;45933;51.336;12.612;2022-07-23T05:53:13;9.90;;;7.43;;
60060;SDS011;45933;51.336;12.612;2022-07-23T05:55:38;9.93;;;7.55;;
60060;SDS011;45933;51.336;12.612;2022-07-23T05:58:04;8.80;;;7.45;;
60060;SDS011;45933;51.336;12.612;2022-07-23T06:00:29;8.48;;;7.35;;
60060;SDS011;45933;51.336;12.612;2022-07-23T06:02:55;10.93;;;7.25;;
60060;SDS011;45933;51.336;12.612;2022-07-23T06:05:20;8.20;;;7.38;;
60060;SDS011;45933;51.336;12.612;2022-07-23T06:07:46;6.90;;;6.07;;
60060;SDS011;45933;51.336;12.612;2022-07-23T06:10:11;7.20;;;6.35;;
60060;SDS011;45933;51.336;12.612;2022-07-23T06:12:37;8.40;;;6.50;;
60060;SDS011;45933;51.336;12.612;2022-07-23T06:15:03;7.07;;;6.38;;
60060;SDS011;45933;51.336;12.612;2022-07-23T06:17:28;8.23;;;6.43;;
60060;SDS011;45933;51.336;12.612;2022-07-23T06:19:54;8.13;;;5.43;;
60060;SDS011;45933;51.336;12.612;2022-07-23T06:22:20;7.38;;;6.03;;
60060;SDS011;45933;51.336;12.612;2022-07-23T06:24:46;7.60;;;5.13;;
60060;SDS011;45933;51.336;12.612;2022-07-23T06:27:12;9.70;;;5.80;;
60060;SDS011;45933;51.336;12.612;2022-07-23T06:29:37;6.57;;;5.65;;
60060;SDS011;45933;51.336;12.612;2022-07-23T06:32:02;7.80;;;5.90;;
60060;SDS011;45933;51.336;12.612;2022-07-23T06:34:28;7.07;;;6.10;;
60060;SDS011;45933;51.336;12.612;2022-07-23T06:36:53;6.68;;;5.35;;
60060;SDS011;45933;51.336;12.612;2022-07-23T06:39:19;7.57;;;5.30;;
60060;SDS011;45933;51.336;12.612;2022-07-23T06:41:44;7.20;;;5.25;;
60060;SDS011;45933;51.336;12.612;2022-07-23T06:44:10;6.97;;;4.82;;
60060;SDS011;45933;51.336;12.612;2022-07-23T06:46:35;5.68;;;5.07;;
60060;SDS011;45933;51.336;12.612;2022-07-23T06:49:00;6.18;;;5.20;;
60060;SDS011;45933;51.336;12.612;2022-07-23T06:51:26;7.43;;;5.30;;
60060;SDS011;45933;51.336;12.612;2022-07-23T06:53:51;8.30;;;5.20;;
60060;SDS011;45933;51.336;12.612;2022-07-23T06:56:16;5.55;;;4.90;;
60060;SDS011;45933;51.336;12.612;2022-07-23T06:58:42;5.13;;;4.72;;
60060;SDS011;45933;51.336;12.612;2022-07-23T07:01:07;7.50;;;5.22;;
60060;SDS011;45933;51.336;12.612;2022-07-23T07:03:33;7.45;;;4.90;;
60060;SDS011;45933;51.336;12.612;2022-07-23T07:05:58;5.93;;;4.63;;
60060;SDS011;45933;51.336;12.612;2022-07-23T07:08:24;8.43;;;4.90;;
60060;SDS011;45933;51.336;12.612;2022-07-23T07:10:49;7.53;;;5.07;;
60060;SDS011;45933;51.336;12.612;2022-07-23T07:13:15;7.03;;;5.28;;
60060;SDS011;45933;51.336;12.612;2022-07-23T07:15:40;6.10;;;4.55;;
60060;SDS011;45933;51.336;12.612;2022-07-23T07:18:06;6.18;;;4.78;;
60060;SDS011;45933;51.336;12.612;2022-07-23T07:20:31;5.28;;;4.18;;
60060;SDS011;45933;51.336;12.612;2022-07-23T07:22:56;5.47;;;4.60;;
60060;SDS011;45933;51.336;12.612;2022-07-23T07:25:22;6.38;;;5.03;;
60060;SDS011;45933;51.336;12.612;2022-07-23T07:27:47;7.20;;;5.22;;
60060;SDS011;45933;51.336;12.612;2022-07-23T07:30:13;9.02;;;5.55;;
60060;SDS011;45933;51.336;12.612;2022-07-23T07:32:38;6.70;;;4.88;;
60060;SDS011;45933;51.336;12.612;2022-07-23T07:35:05;5.60;;;4.70;;
60060;SDS011;45933;51.336;12.612;2022-07-23T07:37:31;8.05;;;5.43;;
60060;SDS011;45933;51.336;12.612;2022-07-23T07:39:56;6.10;;;5.18;;
60060;SDS011;45933;51.336;12.612;2022-07-23T07:42:22;6.60;;;4.65;;
60060;SDS011;45933;51.336;12.612;2022-07-23T07:44:47;5.38;;;4.80;;
60060;SDS011;45933;51.336;12.612;2022-07-23T07:47:13;7.20;;;5.07;;
60060;SDS011;45933;51.336;12.612;2022-07-23T07:49:40;6.88;;;5.00;;
60060;SDS011;45933;51.336;12.612;2022-07-23T07:52:06;8.52;;;5.43;;
60060;SDS011;45933;51.336;12.612;2022-07-23T07:54:31;5.75;;;5.10;;
60060;SDS011;45933;51.336;12.612;2022-07-23T07:56:57;8.10;;;5.53;;
60060;SDS011;45933;51.336;12.612;2022-07-23T07:59:22;5.53;;;4.80;;
60060;SDS011;45933;51.336;12.612;2022-07-23T08:01:48;5.20;;;4.65;;
60060;SDS011;45933;51.336;12.612;2022-07-23T08:04:13;7.55;;;5.38;;
60060;SDS011;45933;51.336;12.612;2022-07-23T08:06:39;9.05;;;5.40;;
60060;SDS011;45933;51.336;12.612;2022-07-23T08:09:04;8.07;;;5.25;;
60060;SDS011;45933;51.336;12.612;2022-07-23T08:11:29;7.30;;;5.60;;
60060;SDS011;45933;51.336;12.612;2022-07-23T08:13:55;7.13;;;5.40;;
60060;SDS011;45933;51.336;12.612;2022-07-23T08:16:21;7.53;;;5.95;;
60060;SDS011;45933;51.336;12.612;2022-07-23T08:18:46;8.13;;;6.70;;
60060;SDS011;45933;51.336;12.612;2022-07-23T08:21:12;8.30;;;6.60;;
60060;SDS011;45933;51.336;12.612;2022-07-23T08:23:37;6.97;;;6.00;;
60060;SDS011;45933;51.336;12.612;2022-07-23T08:26:03;7.68;;;6.18;;
60060;SDS011;45933;51.336;12.612;2022-07-23T08:28:28;8.00;;;6.05;;
60060;SDS011;45933;51.336;12.612;2022-07-23T08:30:54;6.25;;;5.55;;
60060;SDS011;45933;51.336;12.612;2022-07-23T08:33:19;7.93;;;6.30;;
60060;SDS011;45933;51.336;12.612;2022-07-23T08:35:46;8.32;;;6.13;;
60060;SDS011;45933;51.336;12.612;2022-07-23T08:38:14;10.88;;;6.80;;
60060;SDS011;45933;51.336;12.612;2022-07-23T08:40:41;7.57;;;6.72;;
60060;SDS011;45933;51.336;12.612;2022-07-23T08:43:13;8.27;;;6.90;;
60060;SDS011;45933;51.336;12.612;2022-07-23T08:45:44;8.13;;;6.88;;
60060;SDS011;45933;51.336;12.612;2022-07-23T08:48:13;7.85;;;5.88;;
60060;SDS011;45933;51.336;12.612;2022-07-23T08:50:42;8.60;;;6.70;;
60060;SDS011;45933;51.336;12.612;2022-07-23T08:53:09;8.35;;;7.53;;
60060;SDS011;45933;51.336;12.612;2022-07-23T08:55:35;8.32;;;7.45;;
60060;SDS011;45933;51.336;12.612;2022-07-23T08:58:00;10.35;;;8.20;;
60060;SDS011;45933;51.336;12.612;2022-07-23T09:00:26;9.05;;;7.72;;
60060;SDS011;45933;51.336;12.612;2022-07-23T09:02:51;9.82;;;7.80;;
60060;SDS011;45933;51.336;12.612;2022-07-23T09:05:17;9.27;;;7.88;;
60060;SDS011;45933;51.336;12.612;2022-07-23T09:08:05;8.60;;;7.70;;
60060;SDS011;45933;51.336;12.612;2022-07-23T09:10:44;9.02;;;8.02;;
60060;SDS011;45933;51.336;12.612;2022-07-23T09:13:23;9.73;;;8.15;;
60060;SDS011;45933;51.336;12.612;2022-07-23T09:15:49;9.73;;;8.10;;
60060;SDS011;45933;51.336;12.612;2022-07-23T09:18:16;7.68;;;6.88;;
60060;SDS011;45933;51.336;12.612;2022-07-23T09:20:43;10.48;;;8.63;;
60060;SDS011;45933;51.336;12.612;2022-07-23T09:23:08;10.45;;;8.30;;
60060;SDS011;45933;51.336;12.612;2022-07-23T09:25:34;8.48;;;7.45;;
60060;SDS011;45933;51.336;12.612;2022-07-23T09:27:59;9.65;;;8.13;;
60060;SDS011;45933;51.336;12.612;2022-07-23T09:30:31;12.02;;;8.20;;
60060;SDS011;45933;51.336;12.612;2022-07-23T09:33:13;8.38;;;7.18;;
60060;SDS011;45933;51.336;12.612;2022-07-23T09:35:58;9.25;;;7.35;;
60060;SDS011;45933;51.336;12.612;2022-07-23T09:38:23;8.23;;;7.15;;
60060;SDS011;45933;51.336;12.612;2022-07-23T09:43:35;8.77;;;6.35;;
60060;SDS011;45933;51.336;12.612;2022-07-23T09:46:16;8.38;;;7.18;;
60060;SDS011;45933;51.336;12.612;2022-07-23T09:48:52;10.40;;;7.57;;
60060;SDS011;45933;51.336;12.612;2022-07-23T09:51:21;9.43;;;8.05;;
60060;SDS011;45933;51.336;12.612;2022-07-23T09:54:01;9.75;;;8.07;;
60060;SDS011;45933;51.336;12.612;2022-07-23T09:56:27;10.35;;;8.13;;
60060;SDS011;45933;51.336;12.612;2022-07-23T09:58:53;11.27;;;9.10;;
60060;SDS011;45933;51.336;12.612;2022-07-23T10:01:38;10.23;;;8.30;;
60060;SDS011;45933;51.336;12.612;2022-07-23T10:04:03;11.55;;;9.60;;
60060;SDS011;45933;51.336;12.612;2022-07-23T10:06:30;11.75;;;9.57;;
60060;SDS011;45933;51.336;12.612;2022-07-23T10:08:56;13.82;;;9.90;;
60060;SDS011;45933;51.336;12.612;2022-07-23T10:11:24;12.15;;;10.95;;
60060;SDS011;45933;51.336;12.612;2022-07-23T10:13:53;12.32;;;11.02;;
60060;SDS011;45933;51.336;12.612;2022-07-23T10:16:20;12.35;;;11.05;;
60060;SDS011;45933;51.336;12.612;2022-07-23T10:18:46;13.98;;;11.07;;
60060;SDS011;45933;51.336;12.612;2022-07-23T10:21:12;11.93;;;10.73;;
60060;SDS011;45933;51.336;12.612;2022-07-23T10:23:47;12.88;;;10.88;;
60060;SDS011;45933;51.336;12.612;2022-07-23T10:26:37;10.80;;;9.70;;
60060;SDS011;45933;51.336;12.612;2022-07-23T10:31:58;10.70;;;9.70;;
60060;SDS011;45933;51.336;12.612;2022-07-23T10:37:06;9.77;;;8.77;;
60060;SDS011;45933;51.336;12.612;2022-07-23T10:39:39;11.05;;;9.32;;
60060;SDS011;45933;51.336;12.612;2022-07-23T10:42:16;10.00;;;7.85;;
60060;SDS011;45933;51.336;12.612;2022-07-23T10:44:43;10.15;;;9.15;;
60060;SDS011;45933;51.336;12.612;2022-07-23T10:47:11;11.55;;;8.60;;
60060;SDS011;45933;51.336;12.612;2022-07-23T10:50:16;9.85;;;8.85;;
60060;SDS011;45933;51.336;12.612;2022-07-23T10:55:43;9.05;;;8.15;;
60060;SDS011;45933;51.336;12.612;2022-07-23T10:58:10;8.68;;;7.88;;
60060;SDS011;45933;51.336;12.612;2022-07-23T11:00:36;8.95;;;8.15;;
60060;SDS011;45933;51.336;12.612;2022-07-23T11:03:03;10.43;;;7.82;;
60060;SDS011;45933;51.336;12.612;2022-07-23T11:10:38;11.75;;;9.68;;
60060;SDS011;45933;51.336;12.612;2022-07-23T11:16:06;11.27;;;10.07;;
60060;SDS011;45933;51.336;12.612;2022-07-23T11:32:05;10.07;;;9.13;;
60060;SDS011;45933;51.336;12.612;2022-07-23T11:34:42;11.43;;;9.23;;
60060;SDS011;45933;51.336;12.612;2022-07-23T11:37:12;12.02;;;10.05;;
60060;SDS011;45933;51.336;12.612;2022-07-23T11:39:53;11.32;;;9.35;;
60060;SDS011;45933;51.336;12.612;2022-07-23T11:42:20;10.82;;;9.73;;
60060;SDS011;45933;51.336;12.612;2022-07-23T11:44:46;11.13;;;9.20;;
60060;SDS011;45933;51.336;12.612;2022-07-23T11:47:11;12.60;;;9.48;;
60060;SDS011;45933;51.336;12.612;2022-07-23T11:49:38;11.82;;;9.45;;
60060;SDS011;45933;51.336;12.612;2022-07-23T11:52:07;10.18;;;8.93;;
60060;SDS011;45933;51.336;12.612;2022-07-23T11:54:46;11.40;;;9.27;;
60060;SDS011;45933;51.336;12.612;2022-07-23T11:57:12;10.65;;;9.57;;
60060;SDS011;45933;51.336;12.612;2022-07-23T11:59:38;10.05;;;9.05;;
60060;SDS011;45933;51.336;12.612;2022-07-23T12:02:05;9.43;;;8.43;;
60060;SDS011;45933;51.336;12.612;2022-07-23T12:04:44;11.32;;;9.32;;
60060;SDS011;45933;51.336;12.612;2022-07-23T12:12:42;10.38;;;9.32;;
60060;SDS011;45933;51.336;12.612;2022-07-23T12:15:09;10.93;;;9.57;;
60060;SDS011;45933;51.336;12.612;2022-07-23T12:17:40;10.10;;;8.93;;
60060;SDS011;45933;51.336;12.612;2022-07-23T12:20:08;10.68;;;9.60;;
60060;SDS011;45933;51.336;12.612;2022-07-23T12:22:38;9.38;;;8.48;;
60060;SDS011;45933;51.336;12.612;2022-07-23T12:25:06;12.57;;;9.63;;
60060;SDS011;45933;51.336;12.612;2022-07-23T12:27:43;10.52;;;9.23;;
60060;SDS011;45933;51.336;12.612;2022-07-23T12:30:23;11.43;;;9.73;;
60060;SDS011;45933;51.336;12.612;2022-07-23T12:32:55;9.52;;;8.55;;
60060;SDS011;45933;51.336;12.612;2022-07-23T12:35:22;9.60;;;8.70;;
60060;SDS011;45933;51.336;12.612;2022-07-23T12:37:59;9.82;;;8.82;;
60060;SDS011;45933;51.336;12.612;2022-07-23T12:40:28;9.57;;;8.40;;
60060;SDS011;45933;51.336;12.612;2022-07-23T12:42:59;9.90;;;8.90;;
60060;SDS011;45933;51.336;12.612;2022-07-23T12:45:27;9.57;;;8.57;;
60060;SDS011;45933;51.336;12.612;2022-07-23T12:48:05;11.63;;;9.80;;
60060;SDS011;45933;51.336;12.612;2022-07-23T12:53:06;9.27;;;8.15;;
60060;SDS011;45933;51.336;12.612;2022-07-23T12:55:42;9.27;;;8.32;;
60060;SDS011;45933;51.336;12.612;2022-07-23T12:58:10;11.75;;;8.32;;
60060;SDS011;45933;51.336;12.612;2022-07-23T13:03:39;9.77;;;8.10;;
60060;SDS011;45933;51.336;12.612;2022-07-23T13:06:09;8.98;;;7.57;;
60060;SDS011;45933;51.336;12.612;2022-07-23T13:08:36;8.35;;;7.60;;
60060;SDS011;45933;51.336;12.612;2022-07-23T13:11:04;10.30;;;7.65;;
60060;SDS011;45933;51.336;12.612;2022-07-23T13:13:31;10.23;;;8.60;;
60060;SDS011;45933;51.336;12.612;2022-07-23T13:15:59;9.60;;;7.93;;
60060;SDS011;45933;51.336;12.612;2022-07-23T13:18:26;9.95;;;8.55;;
60060;SDS011;45933;51.336;12.612;2022-07-23T13:20:52;9.90;;;9.00;;
60060;SDS011;45933;51.336;12.612;2022-07-23T13:23:18;11.73;;;10.52;;
60060;SDS011;45933;51.336;12.612;2022-07-23T13:25:44;10.88;;;8.98;;
60060;SDS011;45933;51.336;12.612;2022-07-23T13:28:10;9.95;;;8.75;;
60060;SDS011;45933;51.336;12.612;2022-07-23T13:30:36;10.07;;;8.18;;
60060;SDS011;45933;51.336;12.612;2022-07-23T13:33:02;10.13;;;9.13;;
60060;SDS011;45933;51.336;12.612;2022-07-23T13:35:28;9.55;;;8.30;;
60060;SDS011;45933;51.336;12.612;2022-07-23T13:37:54;8.82;;;7.97;;
60060;SDS011;45933;51.336;12.612;2022-07-23T13:40:19;12.40;;;8.93;;
60060;SDS011;45933;51.336;12.612;2022-07-23T13:45:36;9.63;;;8.68;;
60060;SDS011;45933;51.336;12.612;2022-07-23T13:48:03;9.48;;;8.57;;
60060;SDS011;45933;51.336;12.612;2022-07-23T13:50:29;7.90;;;7.10;;
60060;SDS011;45933;51.336;12.612;2022-07-23T13:52:54;9.77;;;8.90;;
60060;SDS011;45933;51.336;12.612;2022-07-23T13:55:20;8.73;;;7.82;;
60060;SDS011;45933;51.336;12.612;2022-07-23T13:57:45;9.00;;;8.10;;
60060;SDS011;45933;51.336;12.612;2022-07-23T14:00:11;8.30;;;7.50;;
60060;SDS011;45933;51.336;12.612;2022-07-23T14:02:37;8.32;;;7.50;;
60060;SDS011;45933;51.336;12.612;2022-07-23T14:05:07;9.10;;;8.20;;
60060;SDS011;45933;51.336;12.612;2022-07-23T14:07:34;9.48;;;8.02;;
60060;SDS011;45933;51.336;12.612;2022-07-23T14:10:01;8.30;;;6.95;;
60060;SDS011;45933;51.336;12.612;2022-07-23T14:12:27;8.60;;;7.82;;
60060;SDS011;45933;51.336;12.612;2022-07-23T14:14:53;8.98;;;7.50;;
60060;SDS011;45933;51.336;12.612;2022-07-23T14:17:18;8.20;;;7.35;;
60060;SDS011;45933;51.336;12.612;2022-07-23T14:19:44;9.50;;;8.48;;
60060;SDS011;45933;51.336;12.612;2022-07-23T14:22:10;11.30;;;9.43;;
60060;SDS011;45933;51.336;12.612;2022-07-23T14:24:35;9.25;;;8.38;;
60060;SDS011;45933;51.336;12.612;2022-07-23T14:27:01;10.93;;;9.88;;
60060;SDS011;45933;51.336;12.612;2022-07-23T14:29:28;10.95;;;9.68;;
60060;SDS011;45933;51.336;12.612;2022-07-23T14:31:53;10.48;;;9.48;;
60060;SDS011;45933;51.336;12.612;2022-07-23T14:34:19;9.70;;;8.80;;
60060;SDS011;45933;51.336;12.612;2022-07-23T14:36:44;10.40;;;9.40;;
60060;SDS011;45933;51.336;12.612;2022-07-23T14:39:10;10.50;;;9.40;;
60060;SDS011;45933;51.336;12.612;2022-07-23T14:41:36;10.75;;;9.75;;
60060;SDS011;45933;51.336;12.612;2022-07-23T14:44:02;9.88;;;8.98;;
60060;SDS011;45933;51.336;12.612;2022-07-23T14:46:29;9.20;;;8.32;;
60060;SDS011;45933;51.336;12.612;2022-07-23T14:48:54;10.27;;;9.27;;
60060;SDS011;45933;51.336;12.612;2022-07-23T14:51:19;9.38;;;8.45;;
60060;SDS011;45933;51.336;12.612;2022-07-23T14:53:45;10.35;;;9.35;;
60060;SDS011;45933;51.336;12.612;2022-07-23T14:56:10;8.50;;;7.80;;
60060;SDS011;45933;51.336;12.612;2022-07-23T14:58:38;10.52;;;8.20;;
60060;SDS011;45933;51.336;12.612;2022-07-23T15:01:03;10.00;;;7.82;;
60060;SDS011;45933;51.336;12.612;2022-07-23T15:03:29;8.90;;;8.00;;
60060;SDS011;45933;51.336;12.612;2022-07-23T15:05:54;9.00;;;8.20;;
60060;SDS011;45933;51.336;12.612;2022-07-23T15:08:22;10.13;;;9.13;;
60060;SDS011;45933;51.336;12.612;2022-07-23T15:10:47;10.15;;;9.25;;
60060;SDS011;45933;51.336;12.612;2022-07-23T15:13:13;9.73;;;8.55;;
60060;SDS011;45933;51.336;12.612;2022-07-23T15:15:38;10.68;;;9.38;;